Time;durP1;ratioP1;P1;durP2;ratioP2;P2;SDS_P1;SDS_P2;PMS_P1;PMS_P2;Temp;Humidity;BMP_temperature;BMP_pressure;BME280_temperature;BME280_humidity;BME280_pressure;Samples;Min_cycle;Max_cycle;Signal;HPM_P1;HPM_P2
2023/08/22 00:01:57;;;;;;;0.10;0.10;;;;;;;22.87;100.00;99424.41;5094084;28;20198;-57
2023/08/22 00:04:45;;;;;;;0.10;0.10;;;;;;;22.90;100.00;99425.97;5094139;28;20194;-57
2023/08/22 00:07:32;;;;;;;0.10;0.10;;;;;;;22.69;100.00;99424.59;5094351;28;20214;-56
2023/08/22 00:10:19;;;;;;;0.10;0.10;;;;;;;22.63;100.00;99430.66;5094136;28;20198;-57
2023/08/22 00:13:06;;;;;;;0.10;0.10;;;;;;;22.49;100.00;99425.94;5094110;28;20195;-57
2023/08/22 00:15:58;;;;;;;0.10;0.10;;;;;;;22.48;100.00;99432.31;5094009;28;20190;-57
2023/08/22 00:18:45;;;;;;;0.10;0.10;;;;;;;22.36;100.00;99420.19;5092639;28;20191;-56
2023/08/22 00:21:33;;;;;;;0.10;0.10;;;;;;;22.41;100.00;99426.78;5094116;28;20214;-57
2023/08/22 00:24:20;;;;;;;0.10;0.10;;;;;;;22.36;100.00;99423.72;5094062;28;20258;-57
2023/08/22 00:27:07;;;;;;;0.10;0.10;;;;;;;22.48;100.00;99419.66;5093686;28;20698;-57
2023/08/22 00:29:54;;;;;;;0.10;0.10;;;;;;;22.51;100.00;99422.06;5093607;28;20195;-57
2023/08/22 00:32:41;;;;;;;0.10;0.10;;;;;;;22.32;100.00;99424.22;5092362;28;20198;-57
2023/08/22 00:35:28;;;;;;;0.10;0.10;;;;;;;22.30;100.00;99420.88;5091986;28;20214;-57
2023/08/22 00:38:17;;;;;;;0.10;0.10;;;;;;;22.33;100.00;99429.47;5093253;28;20710;-57
2023/08/22 00:41:03;;;;;;;0.10;0.10;;;;;;;22.21;100.00;99428.94;5092484;28;20199;-57
2023/08/22 00:43:50;;;;;;;0.10;0.10;;;;;;;22.17;100.00;99427.56;5093376;28;20194;-57
2023/08/22 00:46:37;;;;;;;0.10;0.10;;;;;;;22.14;100.00;99419.81;5093340;28;20257;-56
2023/08/22 00:49:26;;;;;;;0.10;0.10;;;;;;;22.14;100.00;99421.66;5092894;28;20225;-57
2023/08/22 00:52:13;;;;;;;0.10;0.10;;;;;;;22.18;100.00;99407.66;5093306;28;20688;-57
2023/08/22 00:55:02;;;;;;;0.10;0.10;;;;;;;22.10;100.00;99404.09;5093187;28;20213;-56
2023/08/22 00:57:49;;;;;;;0.10;0.10;;;;;;;22.08;100.00;99393.47;5093373;28;20233;-57
2023/08/22 01:00:35;;;;;;;0.20;0.20;;;;;;;;;;5093189;28;20195;-56
2023/08/22 01:03:22;;;;;;;0.10;0.10;;;;;;;22.08;100.00;99388.09;5087767;28;20281;-57
2023/08/22 01:06:14;;;;;;;0.10;0.10;;;;;;;21.88;100.00;99379.41;5092202;28;20694;-56
2023/08/22 01:09:07;;;;;;;0.10;0.10;;;;;;;21.97;100.00;99372.19;5093190;28;20203;-57
2023/08/22 01:12:00;;;;;;;0.10;0.10;;;;;;;21.92;100.00;99380.78;5093118;28;20198;-57
2023/08/22 01:15:00;;;;;;;0.10;0.10;;;;;;;21.86;100.00;99372.50;5092973;28;20222;-56
2023/08/22 01:17:49;;;;;;;0.20;0.20;;;;;;;21.78;100.00;99372.47;5091317;28;20309;-57
2023/08/22 01:20:36;;;;;;;0.15;0.15;;;;;;;21.76;100.00;99377.19;5093170;28;20214;-56
2023/08/22 01:23:24;;;;;;;0.10;0.10;;;;;;;21.74;100.00;99376.53;5092922;28;20218;-57
2023/08/22 01:26:11;;;;;;;0.10;0.10;;;;;;;21.70;100.00;99379.53;5092029;28;20263;-57
2023/08/22 01:29:03;;;;;;;0.10;0.10;;;;;;;21.64;100.00;99382.06;5092846;28;20194;-57
2023/08/22 01:31:57;;;;;;;0.20;0.20;;;;;;;21.59;100.00;99393.31;5091617;28;20266;-57
2023/08/22 01:34:45;;;;;;;0.13;0.13;;;;;;;21.59;100.00;99387.94;5092796;28;20238;-57
2023/08/22 01:37:33;;;;;;;0.10;0.10;;;;;;;21.64;100.00;99403.63;5092645;28;20241;-57
2023/08/22 01:40:24;;;;;;;0.10;0.10;;;;;;;21.69;100.00;99399.41;5092760;28;20206;-57
2023/08/22 01:43:11;;;;;;;0.10;0.10;;;;;;;21.52;100.00;99403.09;5092848;28;20207;-57
2023/08/22 01:45:58;;;;;;;0.10;0.10;;;;;;;21.46;100.00;99406.41;5092681;28;20194;-57
2023/08/22 01:48:45;;;;;;;0.10;0.10;;;;;;;21.41;100.00;99409.59;5090451;28;20194;-57
2023/08/22 01:51:33;;;;;;;0.10;0.10;;;;;;;21.36;100.00;99411.09;5091797;28;20268;-57
2023/08/22 01:54:20;;;;;;;0.10;0.10;;;;;;;21.42;100.00;99408.59;5092676;28;20191;-57
2023/08/22 01:57:08;;;;;;;0.10;0.10;;;;;;;21.36;100.00;99401.16;5092599;28;20190;-57
2023/08/22 01:59:55;;;;;;;0.10;0.10;;;;;;;21.33;100.00;99408.72;5091638;28;20682;-57
2023/08/22 02:02:42;;;;;;;0.13;0.13;;;;;;;21.31;100.00;99408.00;5091289;28;20205;-56
2023/08/22 02:05:29;;;;;;;0.10;0.10;;;;;;;21.25;100.00;99401.41;5091586;28;20759;-57
2023/08/22 02:08:16;;;;;;;0.10;0.10;;;;;;;21.26;100.00;99399.56;5092657;28;20198;-56
2023/08/22 02:11:04;;;;;;;0.20;0.20;;;;;;;21.22;100.00;99401.69;5091593;28;20306;-57
2023/08/22 02:13:52;;;;;;;0.10;0.10;;;;;;;21.27;100.00;99403.97;5092488;28;20256;-57
2023/08/22 02:16:39;;;;;;;0.10;0.10;;;;;;;21.21;100.00;99396.47;5091327;28;20219;-57
2023/08/22 02:19:25;;;;;;;0.10;0.10;;;;;;;21.19;100.00;99401.19;5092520;28;20191;-57
2023/08/22 02:22:13;;;;;;;0.13;0.13;;;;;;;21.15;100.00;99409.59;5091530;28;20236;-56
2023/08/22 02:24:59;;;;;;;0.10;0.10;;;;;;;21.20;100.00;99406.41;5091311;28;20192;-57
2023/08/22 02:27:46;;;;;;;0.10;0.10;;;;;;;21.06;100.00;99399.78;5092144;28;20261;-56
2023/08/22 02:30:35;;;;;;;0.10;0.10;;;;;;;21.10;100.00;99405.69;5096163;28;20195;-57
2023/08/22 02:33:22;;;;;;;0.10;0.10;;;;;;;21.00;100.00;99405.78;5094785;28;20214;-57
2023/08/22 02:36:08;;;;;;;0.10;0.10;;;;;;;21.00;100.00;99405.78;5094650;28;20219;-57
2023/08/22 02:38:58;;;;;;;0.10;0.10;;;;;;;20.99;100.00;99403.25;5095952;28;20194;-57
2023/08/22 02:41:45;;;;;;;0.10;0.10;;;;;;;20.92;100.00;99407.59;5096170;28;20194;-57
2023/08/22 02:44:32;;;;;;;0.20;0.20;;;;;;;20.85;100.00;99412.78;5094911;28;20206;-57
2023/08/22 02:47:21;;;;;;;0.10;0.10;;;;;;;20.74;100.00;99413.84;5093544;28;20219;-57
2023/08/22 02:50:08;;;;;;;0.10;0.10;;;;;;;20.73;100.00;99419.41;5094682;28;20210;-57
2023/08/22 02:52:55;;;;;;;0.10;0.10;;;;;;;20.69;100.00;99404.56;5094603;28;20187;-57
2023/08/22 02:55:42;;;;;;;0.10;0.10;;;;;;;20.53;100.00;99416.03;5095575;28;20219;-56
2023/08/22 02:58:29;;;;;;;0.10;0.10;;;;;;;20.55;100.00;99416.72;5094747;28;20273;-57
2023/08/22 03:01:16;;;;;;;0.10;0.10;;;;;;;20.53;100.00;99413.34;5094285;28;20195;-56
2023/08/22 03:04:05;;;;;;;0.10;0.10;;;;;;;20.62;100.00;99412.41;5093037;28;20699;-57
2023/08/22 03:06:52;;;;;;;0.10;0.10;;;;;;;20.57;100.00;99407.50;5094395;28;20264;-56
2023/08/22 03:09:40;;;;;;;0.10;0.10;;;;;;;20.62;100.00;99407.03;5095244;28;20203;-57
2023/08/22 03:12:28;;;;;;;0.10;0.10;;;;;;;20.63;100.00;99399.78;5094348;28;20202;-57
2023/08/22 03:15:16;;;;;;;0.10;0.10;;;;;;;20.63;100.00;99397.09;5094996;28;20209;-56
2023/08/22 03:18:03;;;;;;;0.10;0.10;;;;;;;20.59;100.00;99404.66;5094022;28;20194;-57
2023/08/22 03:20:54;;;;;;;0.10;0.10;;;;;;;20.71;100.00;99399.88;5094347;28;20310;-56
2023/08/22 03:23:40;;;;;;;0.10;0.10;;;;;;;20.76;100.00;99402.94;5094177;28;20199;-56
2023/08/22 03:26:29;;;;;;;0.17;0.17;;;;;;;20.74;100.00;99395.00;5094099;28;20274;-57
2023/08/22 03:29:16;;;;;;;0.10;0.10;;;;;;;20.75;100.00;99401.22;5094235;28;20199;-56
2023/08/22 03:32:04;;;;;;;0.15;0.15;;;;;;;20.53;100.00;99400.72;5092672;28;20198;-57
2023/08/22 03:34:51;;;;;;;0.10;0.10;;;;;;;20.65;100.00;99400.47;5093932;28;20241;-57
2023/08/22 03:37:40;;;;;;;0.10;0.10;;;;;;;20.63;100.00;99392.56;5093588;28;20303;-57
2023/08/22 03:40:30;;;;;;;0.10;0.10;;;;;;;20.65;100.00;99397.78;5093161;28;20231;-57
2023/08/22 03:43:17;;;;;;;0.10;0.10;;;;;;;20.67;100.00;99393.13;5093528;28;20207;-56
2023/08/22 03:46:04;;;;;;;0.10;0.10;;;;;;;20.54;100.00;99396.19;5094818;28;20229;-56
2023/08/22 03:48:51;;;;;;;0.10;0.10;;;;;;;20.61;100.00;99397.28;5092657;28;20321;-56
2023/08/22 03:51:39;;;;;;;0.10;0.10;;;;;;;20.73;100.00;99390.63;5093752;28;20206;-57
2023/08/22 03:54:27;;;;;;;0.10;0.10;;;;;;;20.63;100.00;99395.25;5093607;28;20264;-57
2023/08/22 03:57:14;;;;;;;0.10;0.10;;;;;;;20.64;100.00;99391.56;5093334;28;20725;-57
2023/08/22 04:00:03;;;;;;;0.10;0.10;;;;;;;20.52;100.00;99395.50;5093587;28;20199;-57
2023/08/22 04:03:00;;;;;;;0.10;0.10;;;;;;;20.51;100.00;99400.06;5092995;28;20278;-57
2023/08/22 04:05:47;;;;;;;0.10;0.10;;;;;;;20.28;100.00;99398.81;5094302;28;20187;-57
2023/08/22 04:08:34;;;;;;;0.10;0.10;;;;;;;20.27;100.00;99411.44;5094415;28;20320;-56
2023/08/22 04:11:22;;;;;;;0.10;0.10;;;;;;;20.20;100.00;99412.19;5094252;28;20290;-57
2023/08/22 04:14:09;;;;;;;0.10;0.10;;;;;;;20.35;100.00;99412.47;5094348;28;20295;-57
2023/08/22 04:16:56;;;;;;;0.10;0.10;;;;;;;20.30;100.00;99416.50;5092996;28;20303;-57
2023/08/22 04:19:43;;;;;;;0.10;0.10;;;;;;;20.14;100.00;99410.94;5094314;28;20195;-57
2023/08/22 04:22:30;;;;;;;0.10;0.10;;;;;;;20.16;100.00;99424.22;5093152;28;20195;-56
2023/08/22 04:25:18;;;;;;;0.10;0.10;;;;;;;20.21;100.00;99430.84;5093965;28;20679;-57
2023/08/22 04:28:07;;;;;;;0.10;0.10;;;;;;;20.16;100.00;99432.31;5093120;28;20508;-56
2023/08/22 04:30:58;;;;;;;0.10;0.10;;;;;;;20.15;100.00;99426.06;5092860;28;20198;-57
2023/08/22 04:33:46;;;;;;;0.10;0.10;;;;;;;20.19;100.00;99438.25;5091610;28;20199;-57
2023/08/22 04:36:34;;;;;;;0.10;0.10;;;;;;;20.25;100.00;99432.22;5092550;28;20250;-56
2023/08/22 04:39:21;;;;;;;0.10;0.10;;;;;;;20.25;100.00;99434.91;5092579;28;20195;-56
2023/08/22 04:42:13;;;;;;;0.10;0.10;;;;;;;20.11;100.00;99431.94;5092369;28;20195;-56
2023/08/22 04:45:11;;;;;;;0.10;0.10;;;;;;;20.11;100.00;99434.63;5092631;28;20198;-57
2023/08/22 04:47:58;;;;;;;0.10;0.10;;;;;;;20.28;100.00;99433.78;5091953;28;20195;-57
2023/08/22 04:50:45;;;;;;;0.10;0.10;;;;;;;20.19;100.00;99427.47;5091986;28;20198;-57
2023/08/22 04:53:32;;;;;;;0.10;0.10;;;;;;;20.30;100.00;99423.72;5092537;28;20221;-56
2023/08/22 04:56:19;;;;;;;0.10;0.10;;;;;;;20.42;100.00;99419.78;5092123;28;20260;-56
2023/08/22 04:59:05;;;;;;;0.10;0.10;;;;;;;20.34;100.00;99424.25;5093297;28;20190;-57
2023/08/22 05:01:54;;;;;;;0.10;0.10;;;;;;;20.35;100.00;99432.16;5091572;28;20191;-57
2023/08/22 05:04:42;;;;;;;0.10;0.10;;;;;;;20.37;100.00;99423.97;5093305;28;20195;-57
2023/08/22 05:07:29;;;;;;;0.10;0.10;;;;;;;20.50;100.00;99421.75;5092327;28;20249;-57
2023/08/22 05:10:16;;;;;;;0.10;0.10;;;;;;;20.39;100.00;99411.19;5092228;28;20198;-56
2023/08/22 05:13:04;;;;;;;0.10;0.10;;;;;;;20.46;100.00;99410.44;5092138;28;20628;-57
2023/08/22 05:15:51;;;;;;;0.10;0.10;;;;;;;20.57;100.00;99412.06;5092206;28;20198;-57
2023/08/22 05:18:39;;;;;;;0.10;0.10;;;;;;;20.54;100.00;99423.94;5091629;28;20207;-57
2023/08/22 05:21:26;;;;;;;0.10;0.10;;;;;;;20.41;100.00;99423.47;5092168;28;20215;-56
2023/08/22 05:24:13;;;;;;;0.10;0.10;;;;;;;20.36;100.00;99424.94;5092685;28;20210;-57
2023/08/22 05:27:00;;;;;;;0.10;0.10;;;;;;;20.36;100.00;99425.78;5091984;28;20189;-56
2023/08/22 05:29:47;;;;;;;0.10;0.10;;;;;;;20.55;100.00;99431.03;5093058;28;20313;-57
2023/08/22 05:32:34;;;;;;;0.10;0.10;;;;;;;20.65;100.00;99422.00;5091581;28;20191;-57
2023/08/22 05:35:23;;;;;;;0.10;0.10;;;;;;;20.69;100.00;99426.09;5092938;28;20198;-57
2023/08/22 05:38:09;;;;;;;0.10;0.10;;;;;;;20.64;100.00;99420.31;5091541;28;20391;-57
2023/08/22 05:40:57;;;;;;;0.10;0.10;;;;;;;20.79;100.00;99425.00;5091923;28;20244;-57
2023/08/22 05:43:44;;;;;;;0.15;0.15;;;;;;;20.91;100.00;99430.13;5091871;28;20195;-57
2023/08/22 05:46:31;;;;;;;0.10;0.10;;;;;;;20.96;100.00;99423.28;5091931;28;20684;-57
2023/08/22 05:49:19;;;;;;;0.10;0.10;;;;;;;20.94;100.00;99425.28;5091783;28;20199;-57
2023/08/22 05:52:08;;;;;;;0.10;0.10;;;;;;;21.07;100.00;99424.88;5091793;28;20203;-57
2023/08/22 05:54:55;;;;;;;0.10;0.10;;;;;;;21.00;100.00;99421.09;5092715;28;20203;-57
2023/08/22 05:57:43;;;;;;;0.10;0.10;;;;;;;21.20;100.00;99427.13;5091558;28;20218;-57
2023/08/22 06:00:32;;;;;;;0.10;0.10;;;;;;;21.28;100.00;99430.75;5091721;28;20198;-57
2023/08/22 06:03:20;;;;;;;0.10;0.10;;;;;;;21.18;100.00;99426.44;5092090;28;20194;-57
2023/08/22 06:06:08;;;;;;;0.10;0.10;;;;;;;21.35;100.00;99442.59;5095835;28;20737;-57
2023/08/22 06:08:57;;;;;;;0.10;0.10;;;;;;;21.39;100.00;99435.00;5095621;28;20194;-57
2023/08/22 06:11:44;;;;;;;0.10;0.10;;;;;;;21.47;100.00;99437.75;5095763;28;20198;-57
2023/08/22 06:14:30;;;;;;;0.10;0.10;;;;;;;21.49;100.00;99429.50;5096408;28;20194;-57
2023/08/22 06:17:18;;;;;;;0.10;0.10;;;;;;;21.52;100.00;99430.03;5094031;28;20221;-57
2023/08/22 06:20:06;;;;;;;0.10;0.10;;;;;;;21.66;100.00;99431.28;5095396;28;20203;-57
2023/08/22 06:22:53;;;;;;;0.10;0.10;;;;;;;21.70;100.00;99427.22;5096475;28;20191;-57
2023/08/22 06:25:41;;;;;;;0.10;0.10;;;;;;;21.75;100.00;99419.50;5096361;28;20199;-57
2023/08/22 06:28:28;;;;;;;0.10;0.10;;;;;;;21.82;100.00;99425.09;5095148;28;20183;-57
2023/08/22 06:31:15;;;;;;;0.10;0.10;;;;;;;21.87;100.00;99425.44;5095194;28;20195;-57
2023/08/22 06:34:02;;;;;;;0.10;0.10;;;;;;;21.92;100.00;99420.41;5093757;28;20233;-57
2023/08/22 06:36:49;;;;;;;0.10;0.10;;;;;;;22.08;100.00;99428.56;5095933;28;20224;-57
2023/08/22 06:39:38;;;;;;;0.10;0.10;;;;;;;22.27;100.00;99425.56;5096080;28;20233;-57
2023/08/22 06:42:26;;;;;;;0.10;0.10;;;;;;;22.31;100.00;99418.00;5094854;28;20194;-57
2023/08/22 06:45:13;;;;;;;0.10;0.10;;;;;;;22.34;100.00;99424.91;5096104;28;20268;-57
2023/08/22 06:47:59;;;;;;;0.10;0.10;;;;;;;22.61;100.00;99429.16;5094601;28;20261;-57
2023/08/22 06:50:46;;;;;;;0.05;0.05;;;;;;;22.71;100.00;99422.56;5095859;28;20218;-57
2023/08/22 06:53:33;;;;;;;0.10;0.10;;;;;;;22.68;100.00;99425.63;5095866;28;20191;-57
2023/08/22 06:56:20;;;;;;;0.10;0.10;;;;;;;22.87;100.00;99429.81;5096004;28;20233;-56
2023/08/22 06:59:09;;;;;;;0.10;0.10;;;;;;;23.13;100.00;99425.06;5095714;28;20213;-57
2023/08/22 07:01:56;;;;;;;0.10;0.10;;;;;;;23.10;100.00;99420.00;5094263;28;20214;-57
2023/08/22 07:04:43;;;;;;;0.10;0.10;;;;;;;23.35;100.00;99419.94;5095462;28;20186;-57
2023/08/22 07:07:30;;;;;;;0.10;0.10;;;;;;;23.48;100.00;99411.31;5095287;28;20195;-57
2023/08/22 07:10:16;;;;;;;0.10;0.10;;;;;;;23.64;100.00;99419.34;5095366;28;20309;-57
2023/08/22 07:13:04;;;;;;;0.10;0.10;;;;;;;23.86;100.00;99415.06;5095594;28;20288;-57
2023/08/22 07:15:52;;;;;;;0.10;0.10;;;;;;;23.89;100.00;99417.41;5094444;28;20276;-57
2023/08/22 07:18:39;;;;;;;0.10;0.10;;;;;;;23.96;100.00;99421.09;5093767;28;20210;-57
2023/08/22 07:21:26;;;;;;;0.10;0.10;;;;;;;24.12;100.00;99412.84;5095167;28;20241;-57
2023/08/22 07:24:13;;;;;;;0.10;0.10;;;;;;;24.21;100.00;99417.19;5095041;28;20687;-57
2023/08/22 07:27:00;;;;;;;0.10;0.10;;;;;;;24.38;100.00;99412.53;5095076;28;20234;-57
2023/08/22 07:29:47;;;;;;;0.10;0.10;;;;;;;24.33;100.00;99417.66;5095008;28;20194;-57
2023/08/22 07:32:35;;;;;;;0.10;0.10;;;;;;;24.34;100.00;99413.94;5093603;28;20321;-57
2023/08/22 07:35:22;;;;;;;0.10;0.10;;;;;;;24.62;100.00;99416.09;5094943;28;20355;-57
2023/08/22 07:38:09;;;;;;;0.10;0.10;;;;;;;24.96;100.00;99413.75;5094358;28;20226;-57
2023/08/22 07:40:56;;;;;;;0.10;0.10;;;;;;;25.27;100.00;99413.59;5094669;28;20237;-57
2023/08/22 07:43:43;;;;;;;0.10;0.10;;;;;;;25.16;100.00;99411.38;5094547;28;20199;-57
2023/08/22 07:46:30;;;;;;;0.10;0.10;;;;;;;25.40;100.00;99412.97;5094501;28;20207;-57
2023/08/22 07:49:18;;;;;;;0.10;0.10;;;;;;;25.63;100.00;99410.16;5094463;28;20195;-57
2023/08/22 07:52:05;;;;;;;0.10;0.10;;;;;;;25.92;100.00;99409.28;5094686;28;20274;-57
2023/08/22 07:54:52;;;;;;;0.10;0.10;;;;;;;26.23;100.00;99401.69;5094619;28;20257;-58
2023/08/22 07:57:39;;;;;;;0.10;0.10;;;;;;;26.48;100.00;99406.78;5094196;28;20234;-57
2023/08/22 08:00:26;;;;;;;0.00;0.00;;;;;;;26.46;100.00;99400.72;5094344;28;20187;-57
2023/08/22 08:03:13;;;;;;;0.08;0.08;;;;;;;26.29;100.00;99402.81;5093047;28;20214;-57
2023/08/22 08:06:02;;;;;;;0.10;0.10;;;;;;;26.70;100.00;99403.00;5094201;28;20195;-57
2023/08/22 08:08:49;;;;;;;0.00;0.00;;;;;;;26.70;100.00;99408.44;5094494;28;20190;-57
2023/08/22 08:11:35;;;;;;;0.10;0.10;;;;;;;26.98;100.00;99404.91;5094436;28;20337;-57
2023/08/22 08:14:22;;;;;;;0.05;0.05;;;;;;;26.75;100.00;99406.00;5094033;28;20191;-57
2023/08/22 08:17:09;;;;;;;0.00;0.00;;;;;;;27.15;100.00;99400.06;5092650;28;20205;-57
2023/08/22 08:19:56;;;;;;;0.10;0.10;;;;;;;27.55;100.00;99399.25;5093979;28;20191;-57
2023/08/22 08:22:45;;;;;;;0.05;0.05;;;;;;;27.50;100.00;99393.53;5093925;28;20351;-57
2023/08/22 08:25:32;;;;;;;0.00;0.00;;;;;;;27.72;100.00;99407.94;5093643;28;20265;-58
2023/08/22 08:28:19;;;;;;;0.10;0.10;;;;;;;27.50;100.00;99403.59;5093912;28;20317;-57
2023/08/22 08:31:06;;;;;;;0.10;0.10;;;;;;;27.91;100.00;99409.91;5093677;28;20219;-57
2023/08/22 08:33:53;;;;;;;0.00;0.00;;;;;;;27.97;100.00;99408.22;5092445;28;20245;-57
2023/08/22 08:36:40;;;;;;;0.10;0.10;;;;;;;27.66;100.00;99409.56;5093433;28;20702;-57
2023/08/22 08:39:28;;;;;;;0.00;0.00;;;;;;;28.10;100.00;99405.56;5093382;28;20218;-58
2023/08/22 08:42:16;;;;;;;0.00;0.00;;;;;;;28.05;100.00;99402.59;5093579;28;20233;-58
2023/08/22 08:45:04;;;;;;;0.10;0.10;;;;;;;28.77;100.00;99410.09;5093444;28;20209;-57
2023/08/22 08:47:52;;;;;;;0.10;0.10;;;;;;;28.95;96.08;99409.50;5091960;28;20321;-57
2023/08/22 08:50:40;;;;;;;0.00;0.00;;;;;;;28.84;97.24;99407.34;5093352;28;20198;-57
2023/08/22 08:53:27;;;;;;;0.10;0.10;;;;;;;28.83;90.44;99407.56;5093352;28;20194;-58
2023/08/22 08:56:16;;;;;;;0.00;0.00;;;;;;;29.14;90.57;99409.66;5093173;28;20191;-57
2023/08/22 08:59:04;;;;;;;0.08;0.08;;;;;;;29.36;91.44;99411.97;5093047;28;20752;-57
2023/08/22 09:01:51;;;;;;;0.00;0.00;;;;;;;28.69;91.52;99420.38;5092001;28;20229;-58
2023/08/22 09:04:38;;;;;;;0.00;0.00;;;;;;;28.86;89.22;99416.19;5093449;28;20198;-57
2023/08/22 09:07:26;;;;;;;0.10;0.10;;;;;;;28.72;89.90;99409.88;5093347;28;20700;-55
2023/08/22 09:10:14;;;;;;;0.10;0.10;;;;;;;28.99;90.89;99412.63;5093075;28;20671;-55
2023/08/22 09:13:04;;;;;;;0.10;0.10;;;;;;;28.97;95.56;99418.31;5092917;28;20365;-55
2023/08/22 09:15:51;;;;;;;0.00;0.00;;;;;;;29.29;93.10;99419.31;5093084;28;20202;-55
2023/08/22 09:18:42;;;;;;;0.03;0.03;;;;;;;29.25;93.77;99429.00;5091763;28;20214;-55
2023/08/22 09:21:29;;;;;;;0.00;0.00;;;;;;;29.53;82.64;99425.16;5093081;28;20195;-55
2023/08/22 09:24:16;;;;;;;0.10;0.10;;;;;;;29.44;80.88;99424.53;5092984;28;20198;-55
2023/08/22 09:27:05;;;;;;;0.05;0.05;;;;;;;29.35;86.75;99423.94;5092921;28;20214;-55
2023/08/22 09:29:54;;;;;;;0.00;0.00;;;;;;;29.90;84.44;99418.09;5092890;28;20191;-55
2023/08/22 09:32:41;;;;;;;0.00;0.00;;;;;;;29.97;84.64;99423.53;5091585;28;20190;-55
2023/08/22 09:35:32;;;;;;;0.10;0.10;;;;;;;30.04;84.36;99422.44;5092743;28;20218;-55
2023/08/22 09:38:19;;;;;;;0.10;0.10;;;;;;;30.39;81.83;99409.22;5091850;28;20231;-55
2023/08/22 09:41:05;;;;;;;0.00;0.00;;;;;;;30.36;81.38;99414.31;5092606;28;20202;-55
2023/08/22 09:43:56;;;;;;;0.00;0.00;;;;;;;30.65;73.57;99421.91;5092707;28;20329;-55
2023/08/22 09:46:48;;;;;;;0.00;0.00;;;;;;;30.42;71.25;99417.00;5092269;28;20216;-55
2023/08/22 09:49:37;;;;;;;0.00;0.00;;;;;;;31.14;67.87;99417.50;5092923;28;20319;-55
2023/08/22 09:52:24;;;;;;;0.10;0.10;;;;;;;30.76;68.83;99421.19;5092637;28;20313;-55
2023/08/22 09:55:12;;;;;;;0.10;0.10;;;;;;;31.06;67.43;99424.09;5092428;28;20256;-55
2023/08/22 09:58:01;;;;;;;0.10;0.10;;;;;;;30.99;68.48;99417.03;5092625;28;20211;-55
2023/08/22 10:00:49;;;;;;;0.05;0.05;;;;;;;31.65;67.04;99413.59;5092432;28;20182;-55
2023/08/22 10:03:38;;;;;;;0.00;0.00;;;;;;;31.58;71.10;99412.88;5091387;28;20306;-55
2023/08/22 10:06:29;;;;;;;0.10;0.10;;;;;;;31.37;68.69;99416.91;5092733;28;20309;-55
2023/08/22 10:09:32;;;;;;;0.10;0.10;;;;;;;30.82;68.75;99416.75;5092405;28;20203;-55
2023/08/22 10:12:21;;;;;;;0.00;0.00;;;;;;;31.08;70.28;99421.16;5092360;28;20654;-55
2023/08/22 10:15:09;;;;;;;0.10;0.10;;;;;;;31.68;68.05;99409.59;5092381;28;20289;-55
2023/08/22 10:17:56;;;;;;;0.00;0.00;;;;;;;32.04;68.81;99417.81;5090848;28;20199;-55
2023/08/22 10:20:44;;;;;;;0.00;0.00;;;;;;;32.47;64.89;99411.31;5092220;28;20227;-58
2023/08/22 10:23:54;;;;;;;0.00;0.00;;;;;;;33.08;59.94;99406.53;5092433;28;20187;-57
2023/08/22 10:26:50;;;;;;;0.00;0.00;;;;;;;32.96;61.69;99409.28;5092440;28;20221;-55
2023/08/22 10:30:19;;;;;;;0.00;0.00;;;;;;;32.35;63.97;99403.06;5092121;28;20186;-55
2023/08/22 10:33:07;;;;;;;0.00;0.00;;;;;;;33.17;58.38;99394.97;5090802;28;20296;-55
2023/08/22 10:36:18;;;;;;;0.05;0.05;;;;;;;33.16;57.27;99397.94;5091968;28;20205;-55
2023/08/22 10:39:06;;;;;;;0.00;0.00;;;;;;;34.46;52.69;99391.94;5091943;28;20218;-55
2023/08/22 10:41:56;;;;;;;0.00;0.00;;;;;;;34.67;50.45;99385.69;5091967;28;20221;-55
2023/08/22 10:44:49;;;;;;;0.00;0.00;;;;;;;35.18;50.67;99382.91;5091876;28;20210;-55
2023/08/22 10:47:36;;;;;;;0.00;0.00;;;;;;;36.97;47.17;99389.41;5090705;28;20233;-55
2023/08/22 10:50:23;;;;;;;0.00;0.00;;;;;;;38.26;41.41;99389.81;5093848;28;20187;-55
2023/08/22 10:53:41;;;;;;;0.00;0.00;;;;;;;36.60;45.35;99383.84;5095626;28;20698;-56
2023/08/22 10:56:28;;;;;;;0.00;0.00;;;;;;;38.10;43.45;99388.91;5095990;28;20186;-56
2023/08/22 10:59:15;;;;;;;0.00;0.00;;;;;;;39.15;40.75;99375.44;5095454;28;20304;-56
2023/08/22 11:02:02;;;;;;;0.00;0.00;;;;;;;41.23;35.55;99391.19;5094388;28;20195;-56
2023/08/22 11:04:49;;;;;;;0.00;0.00;;;;;;;43.00;33.38;99384.31;5095757;28;20199;-56
2023/08/22 11:07:35;;;;;;;0.00;0.00;;;;;;;42.43;32.65;99383.56;5095363;28;20241;-56
2023/08/22 11:10:25;;;;;;;0.00;0.00;;;;;;;42.96;31.42;99372.97;5095756;28;20225;-56
2023/08/22 11:13:12;;;;;;;0.00;0.00;;;;;;;41.22;33.99;99378.41;5095576;28;20190;-56
2023/08/22 11:16:00;;;;;;;0.00;0.00;;;;;;;41.31;33.76;99376.66;5095097;28;20198;-56
2023/08/22 11:18:49;;;;;;;0.00;0.00;;;;;;;42.45;31.19;99367.34;5094101;28;20193;-56
2023/08/22 11:21:39;;;;;;;0.00;0.00;;;;;;;42.74;30.18;99369.97;5095437;28;20198;-56
2023/08/22 11:24:26;;;;;;;0.00;0.00;;;;;;;43.97;29.19;99360.88;5094961;28;20203;-56
2023/08/22 11:27:15;;;;;;;0.00;0.00;;;;;;;43.59;29.58;99365.88;5094771;28;20191;-56
2023/08/22 11:30:01;;;;;;;0.00;0.00;;;;;;;42.84;30.72;99362.25;5095022;28;20305;-56
2023/08/22 11:32:48;;;;;;;0.00;0.00;;;;;;;43.80;29.28;99363.50;5093755;28;20309;-56
2023/08/22 11:35:36;;;;;;;0.00;0.00;;;;;;;39.78;33.77;99366.66;5094922;28;20817;-56
2023/08/22 11:38:23;;;;;;;0.00;0.00;;;;;;;38.56;36.21;99367.69;5094569;28;20545;-55
2023/08/22 11:41:10;;;;;;;0.00;0.00;;;;;;;37.83;39.12;99374.44;5094703;28;20218;-56
2023/08/22 11:44:00;;;;;;;0.00;0.00;;;;;;;37.79;38.54;99372.22;5094987;28;20298;-55
2023/08/22 11:46:50;;;;;;;0.00;0.00;;;;;;;38.49;36.90;99355.22;5093666;28;20321;-55
2023/08/22 11:49:57;;;;;;;0.00;0.00;;;;;;;39.39;36.55;99349.88;5094873;28;20203;-55
2023/08/22 11:52:45;;;;;;;0.00;0.00;;;;;;;41.03;34.73;99354.13;5094725;28;20249;-55
2023/08/22 11:55:32;;;;;;;0.00;0.00;;;;;;;43.56;30.57;99352.56;5094471;28;20679;-55
2023/08/22 11:58:19;;;;;;;0.00;0.00;;;;;;;44.71;27.23;99346.59;5094619;28;20202;-55
2023/08/22 12:01:08;;;;;;;0.00;0.00;;;;;;;43.87;29.19;99359.16;5093940;28;20210;-55
2023/08/22 12:03:57;;;;;;;0.00;0.00;;;;;;;41.95;31.53;99355.84;5092951;28;20309;-55
2023/08/22 12:06:59;;;;;;;0.00;0.00;;;;;;;44.17;27.50;99351.25;5094655;28;20207;-56
2023/08/22 12:09:58;;;;;;;0.00;0.00;;;;;;;43.02;28.00;99341.03;5094427;28;20193;-56
2023/08/22 12:12:45;;;;;;;0.00;0.00;;;;;;;42.68;29.09;99346.94;5094352;28;20193;-56
2023/08/22 12:15:32;;;;;;;0.00;0.00;;;;;;;44.10;27.24;99340.47;5094319;28;20280;-56
2023/08/22 12:18:28;;;;;;;0.00;0.00;;;;;;;44.68;27.37;99341.59;5092887;28;20225;-56
2023/08/22 12:21:15;;;;;;;0.00;0.00;;;;;;;44.64;26.84;99338.63;5093921;28;20284;-55
2023/08/22 12:24:02;;;;;;;0.00;0.00;;;;;;;43.87;27.78;99328.44;5094137;28;20195;-56
2023/08/22 12:26:49;;;;;;;0.00;0.00;;;;;;;45.42;26.64;99339.06;5093872;28;20257;-55
2023/08/22 12:29:36;;;;;;;0.00;0.00;;;;;;;42.73;28.32;99343.22;5094007;28;20240;-55
2023/08/22 12:32:24;;;;;;;0.00;0.00;;;;;;;43.82;27.91;99336.09;5092764;28;20190;-56
2023/08/22 12:35:12;;;;;;;0.00;0.00;;;;;;;43.75;27.84;99341.31;5093688;28;20210;-56
2023/08/22 12:37:59;;;;;;;0.00;0.00;;;;;;;42.37;28.98;99332.69;5093577;28;20238;-56
2023/08/22 12:40:46;;;;;;;0.00;0.00;;;;;;;41.95;30.00;99330.78;5093707;28;20221;-56
2023/08/22 12:43:33;;;;;;;0.00;0.00;;;;;;;41.93;31.24;99333.03;5093576;28;20704;-55
2023/08/22 12:46:20;;;;;;;0.00;0.00;;;;;;;40.48;32.21;99322.94;5093860;28;20261;-55
2023/08/22 12:49:07;;;;;;;0.00;0.00;;;;;;;39.39;34.70;99333.25;5093487;28;20190;-55
2023/08/22 12:51:55;;;;;;;0.00;0.00;;;;;;;38.69;35.17;99326.72;5093446;28;20313;-56
2023/08/22 12:54:42;;;;;;;0.00;0.00;;;;;;;38.89;35.50;99329.44;5093655;28;20195;-55
2023/08/22 12:57:29;;;;;;;0.00;0.00;;;;;;;37.11;38.24;99331.75;5093538;28;20206;-55
2023/08/22 13:00:16;;;;;;;0.00;0.00;;;;;;;36.18;38.48;99320.22;5093151;28;20207;-55
2023/08/22 13:03:03;;;;;;;0.00;0.00;;;;;;;37.05;37.62;99332.81;5092097;28;20198;-55
2023/08/22 13:05:50;;;;;;;0.00;0.00;;;;;;;36.35;38.81;99327.31;5093417;28;20195;-55
2023/08/22 13:08:38;;;;;;;0.00;0.00;;;;;;;37.62;37.81;99332.84;5093089;28;20256;-55